Tilford, South Dakota
Current Conditions -  °F | °C
As of 1:58 PM on Thursday 23 Oct 2014 (Local Time) from KRCA Reporting Station
Broken Clouds Broken Clouds  
Wind Chill: 66°   Ceiling: 20000
Heat Index: 66°   Visibility: 10mi
Dew Point: 35°   Wind: 8mph
Humidity: 32%   Direction: 150°SSE
Pressure: 29.89"   Gusts: NA
Location:  44.2544°N, 103.292°W
Report Text: KRCA 231958Z AUTO 15007KT 10SM BKN200 19/02 A2989 RMK AO2 SLP119 T01890016 $
Loading
Personal Weather Stations






























Interactive Weather Map New forecast layout! Learn more

10-Day Weather Forecast

Advertisements
Track Severe Weather on mobile